Time;durP1;ratioP1;P1;durP2;ratioP2;P2;SDS_P1;SDS_P2;PMS_P1;PMS_P2;Temp;Humidity;BMP_temperature;BMP_pressure;BME280_temperature;BME280_humidity;BME280_pressure;Samples;Min_cycle;Max_cycle;Signal;HPM_P1;HPM_P2
2023/03/14 00:00:59;;;;;;;1.02;0.80;;;13.60;99.90;;;;;;5028052;28;20037;-61
2023/03/14 00:03:25;;;;;;;0.60;0.60;;;13.60;99.90;;;;;;5030186;28;20389;-60
2023/03/14 00:05:51;;;;;;;1.40;0.70;;;13.60;99.90;;;;;;5032075;28;20818;-61
2023/03/14 00:08:17;;;;;;;1.70;0.50;;;13.50;99.90;;;;;;5028668;28;20033;-62
2023/03/14 00:10:43;;;;;;;2.45;0.70;;;13.40;99.90;;;;;;5031698;28;20065;-62
2023/03/14 00:13:09;;;;;;;1.95;0.63;;;13.40;99.90;;;;;;5029896;28;20045;-61
2023/03/14 00:15:35;;;;;;;1.23;0.60;;;13.30;99.90;;;;;;5034243;28;20037;-61
2023/03/14 00:18:01;;;;;;;1.23;0.80;;;13.20;99.90;;;;;;5031929;28;20672;-62
2023/03/14 00:20:27;;;;;;;0.88;0.63;;;13.10;99.90;;;;;;5028484;28;20112;-62
2023/03/14 00:22:53;;;;;;;1.95;0.65;;;13.10;99.90;;;;;;5028433;28;20135;-62
2023/03/14 00:25:19;;;;;;;1.70;0.80;;;13.20;99.90;;;;;;5027675;28;20025;-61
2023/03/14 00:27:44;;;;;;;0.75;0.65;;;13.20;99.90;;;;;;5027078;28;20041;-62
2023/03/14 00:30:12;;;;;;;0.52;0.52;;;13.20;99.90;;;;;;5027104;28;20029;-61
2023/03/14 00:32:38;;;;;;;1.85;0.95;;;13.20;99.90;;;;;;5032755;28;20781;-64
2023/03/14 00:35:04;;;;;;;1.02;0.70;;;13.20;99.90;;;;;;5029908;28;20033;-61
2023/03/14 00:37:30;;;;;;;0.63;0.57;;;13.10;99.90;;;;;;5025792;28;20037;-62
2023/03/14 00:39:56;;;;;;;1.52;0.70;;;13.00;99.90;;;;;;5028579;28;20097;-61
2023/03/14 00:42:24;;;;;;;2.35;0.85;;;12.90;99.90;;;;;;5041748;28;20029;-62
2023/03/14 00:44:50;;;;;;;0.55;0.55;;;13.00;99.90;;;;;;5037771;28;20033;-61
2023/03/14 00:47:15;;;;;;;1.17;1.00;;;12.90;99.90;;;;;;5038288;28;20029;-62
2023/03/14 00:49:43;;;;;;;0.80;0.80;;;12.90;99.90;;;;;;5027447;28;20041;-62
2023/03/14 00:52:09;;;;;;;1.20;0.82;;;12.90;99.90;;;;;;5028484;28;20030;-62
2023/03/14 00:54:35;;;;;;;0.68;0.63;;;12.80;99.90;;;;;;5027190;28;20083;-62
2023/03/14 00:57:01;;;;;;;0.95;0.88;;;12.70;99.90;;;;;;5033108;28;20037;-62
2023/03/14 00:59:27;;;;;;;0.93;0.65;;;12.70;99.90;;;;;;5028224;28;20025;-62
2023/03/14 01:01:53;;;;;;;0.60;0.60;;;12.60;99.90;;;;;;5023266;28;20116;-62
2023/03/14 01:04:19;;;;;;;0.60;0.60;;;12.50;99.90;;;;;;5023513;28;20116;-62
2023/03/14 01:06:44;;;;;;;1.33;0.80;;;12.50;99.90;;;;;;5031706;28;20053;-62
2023/03/14 01:09:10;;;;;;;1.13;0.75;;;12.50;99.90;;;;;;5033619;28;20658;-62
2023/03/14 01:11:36;;;;;;;0.98;0.98;;;12.30;99.90;;;;;;5033775;28;20040;-62
2023/03/14 01:14:03;;;;;;;1.02;0.60;;;12.20;99.90;;;;;;5034582;28;20041;-62
2023/03/14 01:16:33;;;;;;;1.52;0.82;;;12.10;99.90;;;;;;5032302;28;20037;-62
2023/03/14 01:19:01;;;;;;;2.17;0.90;;;12.10;99.90;;;;;;5031415;28;20026;-62
2023/03/14 01:21:33;;;;;;;1.15;0.77;;;12.10;99.90;;;;;;5032845;28;20089;-62
2023/03/14 01:24:00;;;;;;;1.20;0.80;;;12.00;99.90;;;;;;5029179;28;20036;-62
2023/03/14 01:26:29;;;;;;;1.08;0.70;;;11.90;99.90;;;;;;5033591;28;20033;-62
2023/03/14 01:28:55;;;;;;;0.88;0.80;;;12.00;99.90;;;;;;5033097;28;20167;-62
2023/03/14 01:31:22;;;;;;;0.80;0.80;;;11.90;99.90;;;;;;5025715;28;20802;-62
2023/03/14 01:33:48;;;;;;;1.23;0.80;;;11.90;99.90;;;;;;5027337;28;20041;-62
2023/03/14 01:36:14;;;;;;;1.35;0.77;;;11.90;99.90;;;;;;5028528;28;20033;-62
2023/03/14 01:38:42;;;;;;;2.70;0.80;;;11.90;99.90;;;;;;5026742;28;20034;-62
2023/03/14 01:41:14;;;;;;;0.98;0.77;;;12.00;99.90;;;;;;5025001;28;20052;-62
2023/03/14 01:43:42;;;;;;;1.30;0.80;;;12.00;99.90;;;;;;5023004;28;20040;-62
2023/03/14 01:46:25;;;;;;;1.63;0.63;;;12.00;99.90;;;;;;5027875;28;20056;-62
2023/03/14 01:49:01;;;;;;;1.88;0.70;;;12.00;99.90;;;;;;5029191;28;20079;-62
2023/03/14 01:51:30;;;;;;;3.80;0.80;;;11.90;99.90;;;;;;5034115;28;20186;-62
2023/03/14 01:54:12;;;;;;;1.73;0.93;;;12.00;99.90;;;;;;5026954;28;20029;-62
2023/03/14 01:56:38;;;;;;;2.88;1.10;;;12.00;99.90;;;;;;5029519;28;20048;-61
2023/03/14 01:59:07;;;;;;;0.70;0.70;;;12.10;99.90;;;;;;5022813;28;20746;-62
2023/03/14 02:01:35;;;;;;;2.13;0.57;;;12.10;99.90;;;;;;5028057;28;20639;-62
2023/03/14 02:04:04;;;;;;;2.88;0.70;;;12.10;99.90;;;;;;5027616;28;20044;-62
2023/03/14 02:06:39;;;;;;;0.95;0.85;;;12.20;99.90;;;;;;5030793;28;20057;-61
2023/03/14 02:09:05;;;;;;;1.15;0.80;;;12.10;99.90;;;;;;5026309;28;20032;-62
2023/03/14 02:11:34;;;;;;;1.90;0.80;;;12.00;99.90;;;;;;5028005;28;20076;-62
2023/03/14 02:14:05;;;;;;;4.78;0.80;;;12.10;99.90;;;;;;5023453;28;20041;-62
2023/03/14 02:16:31;;;;;;;5.03;0.73;;;12.10;99.90;;;;;;5030638;28;20087;-62
2023/03/14 02:19:42;;;;;;;0.73;0.70;;;12.10;99.90;;;;;;5011977;28;20723;-62
2023/03/14 02:22:31;;;;;;;0.60;0.60;;;12.00;99.90;;;;;;5029418;28;20041;-62
2023/03/14 02:25:11;;;;;;;4.88;0.80;;;12.10;99.90;;;;;;5023477;28;20061;-61
2023/03/14 02:27:37;;;;;;;1.65;0.70;;;12.20;99.90;;;;;;5026227;28;20037;-62
2023/03/14 02:30:05;;;;;;;0.88;0.68;;;12.20;99.90;;;;;;5032070;28;20037;-62
2023/03/14 02:32:35;;;;;;;0.75;0.65;;;12.20;99.90;;;;;;5024969;28;20021;-61
2023/03/14 02:35:18;;;;;;;1.45;0.80;;;12.10;99.90;;;;;;5028114;28;20040;-62
2023/03/14 02:38:00;;;;;;;0.57;0.55;;;12.10;99.90;;;;;;5029450;28;20068;-62
2023/03/14 02:40:31;;;;;;;0.52;0.52;;;12.20;99.90;;;;;;5027431;28;20025;-62
2023/03/14 02:42:57;;;;;;;2.33;0.73;;;12.20;99.90;;;;;;5023187;28;20779;-62
2023/03/14 02:45:23;;;;;;;1.65;0.60;;;12.20;99.90;;;;;;5027372;28;20060;-61
2023/03/14 02:47:59;;;;;;;2.90;0.60;;;12.20;99.90;;;;;;5026198;28;20037;-62
2023/03/14 02:50:30;;;;;;;0.80;0.80;;;12.10;99.90;;;;;;5031234;28;20045;-62
2023/03/14 02:52:56;;;;;;;1.40;0.68;;;12.10;99.90;;;;;;5036695;28;20055;-62
2023/03/14 02:55:23;;;;;;;0.65;0.50;;;12.20;99.90;;;;;;5029825;28;20025;-62
2023/03/14 02:57:52;;;;;;;1.77;0.80;;;12.30;99.90;;;;;;5034587;28;20042;-62
2023/03/14 03:00:19;;;;;;;1.30;0.50;;;12.20;99.90;;;;;;5034024;28;20027;-63
2023/03/14 03:02:45;;;;;;;0.65;0.52;;;12.20;99.90;;;;;;5025750;28;20033;-62
2023/03/14 03:05:13;;;;;;;1.30;0.70;;;12.20;99.90;;;;;;5029860;28;20156;-62
2023/03/14 03:07:39;;;;;;;0.85;0.55;;;12.20;99.90;;;;;;5025969;28;20136;-62
2023/03/14 03:10:06;;;;;;;0.50;0.45;;;12.10;99.90;;;;;;5024734;28;20045;-64
2023/03/14 03:12:31;;;;;;;1.10;0.60;;;12.10;99.90;;;;;;5027550;28;20446;-63
2023/03/14 03:14:57;;;;;;;1.17;0.50;;;12.10;99.90;;;;;;5025607;28;20034;-64
2023/03/14 03:17:23;;;;;;;0.65;0.50;;;12.00;99.90;;;;;;5023952;28;20861;-64
2023/03/14 03:19:49;;;;;;;2.85;0.50;;;12.00;99.90;;;;;;5027617;28;20120;-63
2023/03/14 03:22:14;;;;;;;1.25;0.57;;;11.90;99.90;;;;;;5024404;28;20052;-63
2023/03/14 03:24:40;;;;;;;1.75;0.90;;;11.90;99.90;;;;;;5028527;28;20025;-63
2023/03/14 03:27:06;;;;;;;0.50;0.50;;;11.80;99.90;;;;;;5025230;28;20767;-63
2023/03/14 03:29:32;;;;;;;0.70;0.50;;;11.80;99.90;;;;;;5025185;28;20084;-63
2023/03/14 03:31:58;;;;;;;1.08;0.45;;;11.70;99.90;;;;;;5022842;28;20029;-63
2023/03/14 03:34:24;;;;;;;0.68;0.60;;;11.70;99.90;;;;;;5029470;28;20025;-63
2023/03/14 03:36:52;;;;;;;1.38;0.60;;;11.60;99.90;;;;;;5028854;28;20029;-63
2023/03/14 03:39:17;;;;;;;1.13;0.80;;;11.50;99.90;;;;;;5031324;28;20029;-63
2023/03/14 03:41:46;;;;;;;0.75;0.50;;;11.60;99.90;;;;;;5032049;28;20036;-63
2023/03/14 03:44:13;;;;;;;0.77;0.63;;;11.60;99.90;;;;;;5029587;28;20034;-64
2023/03/14 03:46:39;;;;;;;0.93;0.80;;;11.60;99.90;;;;;;5019564;28;20040;-63
2023/03/14 03:49:07;;;;;;;1.25;0.47;;;11.60;99.90;;;;;;5028511;28;20060;-63
2023/03/14 03:51:33;;;;;;;1.13;0.75;;;11.50;99.90;;;;;;5031996;28;20941;-63
2023/03/14 03:53:59;;;;;;;0.40;0.40;;;11.50;99.90;;;;;;5028173;28;20077;-63
2023/03/14 03:56:31;;;;;;;1.20;0.68;;;11.40;99.90;;;;;;5026710;28;20093;-63
2023/03/14 03:58:57;;;;;;;0.65;0.55;;;11.50;99.90;;;;;;5026947;28;20598;-63
2023/03/14 04:01:23;;;;;;;0.57;0.50;;;11.50;99.90;;;;;;5033957;28;20059;-63
2023/03/14 04:03:52;;;;;;;0.35;0.35;;;11.50;99.90;;;;;;5027136;28;20461;-63
2023/03/14 04:06:18;;;;;;;1.60;0.52;;;11.50;99.90;;;;;;5030386;28;20124;-63
2023/03/14 04:08:46;;;;;;;1.48;0.55;;;11.50;99.90;;;;;;5024307;28;20036;-61
2023/03/14 04:11:26;;;;;;;0.45;0.45;;;11.40;99.90;;;;;;5031305;28;20061;-63
2023/03/14 04:14:04;;;;;;;1.63;0.73;;;11.40;99.90;;;;;;5031274;28;20136;-63
2023/03/14 04:16:33;;;;;;;1.33;0.60;;;11.40;99.90;;;;;;5028433;28;20041;-63
2023/03/14 04:19:09;;;;;;;0.80;0.63;;;11.40;99.90;;;;;;5033379;28;20040;-63
2023/03/14 04:21:35;;;;;;;0.77;0.60;;;11.40;99.90;;;;;;5031007;28;20876;-63
2023/03/14 04:24:01;;;;;;;0.73;0.60;;;11.40;99.90;;;;;;5031700;28;20033;-63
2023/03/14 04:26:31;;;;;;;3.15;0.68;;;11.40;99.90;;;;;;5035615;28;20432;-63
2023/03/14 04:28:56;;;;;;;1.92;0.80;;;11.40;99.90;;;;;;5030233;28;20040;-63
2023/03/14 04:31:23;;;;;;;0.63;0.60;;;11.40;99.90;;;;;;5023982;28;20029;-61
2023/03/14 04:33:50;;;;;;;2.55;0.95;;;11.50;99.90;;;;;;5026115;28;20033;-63
2023/03/14 04:36:22;;;;;;;1.85;0.70;;;11.50;99.90;;;;;;5025952;28;20040;-63
2023/03/14 04:38:48;;;;;;;2.30;0.50;;;11.60;99.90;;;;;;5025674;28;20060;-62
2023/03/14 04:41:18;;;;;;;1.60;0.70;;;11.60;99.90;;;;;;5025027;28;20029;-61
2023/03/14 04:43:44;;;;;;;0.80;0.80;;;11.60;99.90;;;;;;5032062;28;20037;-63
2023/03/14 04:46:14;;;;;;;1.15;0.60;;;11.60;99.90;;;;;;5026793;28;20033;-64
2023/03/14 04:48:40;;;;;;;2.30;0.70;;;11.60;99.90;;;;;;5034556;28;20049;-63
2023/03/14 04:51:07;;;;;;;1.58;1.23;;;11.60;99.90;;;;;;5022563;28;20187;-63
2023/03/14 04:53:35;;;;;;;2.90;0.80;;;11.40;99.90;;;;;;5026525;28;20037;-63
2023/03/14 04:56:05;;;;;;;1.77;0.45;;;11.40;99.90;;;;;;5031064;28;20037;-63
2023/03/14 04:58:36;;;;;;;2.30;0.80;;;11.40;99.90;;;;;;5029311;28;20030;-63
2023/03/14 05:01:04;;;;;;;0.88;0.65;;;11.40;99.90;;;;;;5025879;28;20083;-63
2023/03/14 05:03:51;;;;;;;0.40;0.40;;;11.40;99.90;;;;;;5024711;28;20208;-61
2023/03/14 05:06:45;;;;;;;1.30;0.68;;;11.40;99.90;;;;;;5029135;28;20798;-64
2023/03/14 05:09:24;;;;;;;1.85;0.50;;;11.40;99.90;;;;;;5029189;28;20029;-63
2023/03/14 05:12:20;;;;;;;1.27;0.85;;;11.40;99.90;;;;;;4984711;28;20046;-63
2023/03/14 05:14:57;;;;;;;0.85;0.52;;;11.40;99.90;;;;;;5025377;28;20029;-63
2023/03/14 05:17:41;;;;;;;0.60;0.55;;;11.40;99.90;;;;;;5032252;28;20219;-63
2023/03/14 05:20:35;;;;;;;1.67;0.47;;;11.40;99.90;;;;;;5029996;28;20030;-63
2023/03/14 05:23:18;;;;;;;0.80;0.63;;;11.50;99.90;;;;;;5023208;28;20025;-63
2023/03/14 05:25:57;;;;;;;1.88;0.70;;;11.50;99.90;;;;;;5029942;28;20025;-63
2023/03/14 05:28:43;;;;;;;0.80;0.57;;;11.40;99.90;;;;;;5028531;28;20045;-63
2023/03/14 05:31:29;;;;;;;1.77;0.70;;;11.30;99.90;;;;;;5024401;28;20116;-63
2023/03/14 05:34:13;;;;;;;2.13;0.70;;;11.30;99.90;;;;;;5031478;28;20040;-63
2023/03/14 05:36:49;;;;;;;1.48;0.80;;;11.40;99.90;;;;;;5028410;28;20037;-63
2023/03/14 05:39:31;;;;;;;3.47;0.82;;;11.30;99.90;;;;;;5027901;28;20782;-64
2023/03/14 05:42:17;;;;;;;1.48;0.60;;;11.30;99.90;;;;;;5033817;28;20029;-63
2023/03/14 05:44:43;;;;;;;4.07;0.80;;;11.20;99.90;;;;;;5030967;28;20045;-62
2023/03/14 05:47:40;;;;;;;2.03;0.60;;;11.30;99.90;;;;;;5024556;28;20132;-63
2023/03/14 05:50:17;;;;;;;1.55;0.60;;;11.30;99.90;;;;;;5028830;28;20078;-63
2023/03/14 05:52:54;;;;;;;2.55;0.80;;;11.30;99.90;;;;;;5021664;28;20036;-64
2023/03/14 05:55:40;;;;;;;1.48;0.60;;;11.20;99.90;;;;;;5026768;28;20044;-63
2023/03/14 05:58:36;;;;;;;1.80;0.60;;;11.30;99.90;;;;;;5023225;28;20037;-63
2023/03/14 06:01:28;;;;;;;1.70;0.52;;;11.30;99.90;;;;;;5026968;28;20069;-63
2023/03/14 06:04:14;;;;;;;2.88;0.85;;;11.30;99.90;;;;;;5025881;28;20041;-63
2023/03/14 06:06:40;;;;;;;1.05;0.60;;;11.30;99.90;;;;;;5023205;28;20485;-63
2023/03/14 06:09:07;;;;;;;2.30;0.70;;;11.30;99.90;;;;;;5025480;28;20221;-63
2023/03/14 06:11:37;;;;;;;2.78;1.02;;;11.40;99.90;;;;;;5025282;28;20029;-63
2023/03/14 06:14:04;;;;;;;4.68;0.85;;;11.30;99.90;;;;;;5023485;28;20033;-63
2023/03/14 06:16:31;;;;;;;5.63;0.80;;;11.30;99.90;;;;;;5028264;28;20041;-63
2023/03/14 06:18:58;;;;;;;1.35;0.70;;;11.30;99.90;;;;;;5021063;28;20846;-63
2023/03/14 06:21:25;;;;;;;4.82;0.80;;;11.40;99.90;;;;;;5026050;28;20120;-62
2023/03/14 06:23:51;;;;;;;2.65;1.13;;;11.40;99.90;;;;;;5025538;28;20688;-63
2023/03/14 06:26:17;;;;;;;3.03;0.70;;;11.40;99.90;;;;;;5024662;28;20117;-63
2023/03/14 06:28:43;;;;;;;2.40;0.52;;;11.50;99.90;;;;;;5028225;28;21009;-63
2023/03/14 06:31:09;;;;;;;1.70;0.52;;;11.60;99.90;;;;;;5030264;28;20032;-63
2023/03/14 06:33:43;;;;;;;2.53;0.70;;;11.60;99.90;;;;;;5028791;28;20107;-63
2023/03/14 06:36:10;;;;;;;1.25;0.60;;;11.70;99.90;;;;;;5028617;28;20033;-63
2023/03/14 06:38:40;;;;;;;1.10;0.82;;;11.70;99.90;;;;;;5023400;28;20527;-63
2023/03/14 06:41:07;;;;;;;1.73;0.70;;;11.70;99.90;;;;;;5028132;28;20111;-63
2023/03/14 06:43:38;;;;;;;5.10;0.70;;;11.70;99.90;;;;;;5028968;28;20024;-63
2023/03/14 06:46:06;;;;;;;3.95;0.75;;;11.80;99.90;;;;;;5019329;28;20064;-63
2023/03/14 06:48:33;;;;;;;4.03;0.80;;;11.90;99.90;;;;;;5022642;28;20132;-64
2023/03/14 06:51:00;;;;;;;2.05;1.08;;;12.00;99.90;;;;;;5033562;28;20033;-63
2023/03/14 06:53:26;;;;;;;2.42;0.93;;;12.10;99.90;;;;;;5025331;28;20040;-63
2023/03/14 06:55:52;;;;;;;4.57;1.30;;;12.20;99.90;;;;;;5026307;28;20941;-63
2023/03/14 06:58:19;;;;;;;6.65;1.60;;;12.30;99.70;;;;;;5027069;28;20103;-63
2023/03/14 07:00:45;;;;;;;2.78;0.73;;;12.50;99.80;;;;;;5020276;28;20355;-63
2023/03/14 07:03:15;;;;;;;2.97;0.85;;;12.40;99.30;;;;;;5024483;28;20025;-63
2023/03/14 07:05:47;;;;;;;2.28;0.80;;;12.20;99.80;;;;;;5026933;28;20492;-63
2023/03/14 07:08:13;;;;;;;2.05;0.70;;;12.20;99.60;;;;;;5031371;28;20397;-63
2023/03/14 07:10:39;;;;;;;3.30;1.05;;;12.10;99.90;;;;;;5034682;28;20029;-65
2023/03/14 07:13:06;;;;;;;2.22;0.85;;;12.20;99.80;;;;;;5028453;28;20040;-66
2023/03/14 07:15:35;;;;;;;2.92;0.63;;;12.10;99.80;;;;;;5027156;28;20091;-63
2023/03/14 07:18:05;;;;;;;0.98;0.60;;;11.90;99.90;;;;;;5025435;28;20041;-64
2023/03/14 07:20:32;;;;;;;2.25;0.73;;;11.90;99.90;;;;;;5029706;28;20036;-63
2023/03/14 07:23:02;;;;;;;1.48;0.80;;;12.00;99.90;;;;;;5032094;28;20029;-64
2023/03/14 07:25:42;;;;;;;2.17;0.82;;;12.10;99.90;;;;;;5030073;28;20095;-65
2023/03/14 07:28:08;;;;;;;3.50;0.77;;;12.20;99.90;;;;;;5030593;28;20049;-64
2023/03/14 07:30:36;;;;;;;3.08;0.98;;;12.40;99.60;;;;;;5027693;28;20033;-64
2023/03/14 07:33:08;;;;;;;5.03;0.93;;;12.60;99.30;;;;;;5032932;28;20036;-63
2023/03/14 07:35:34;;;;;;;3.35;0.80;;;12.70;98.90;;;;;;5023485;28;20504;-64
2023/03/14 07:38:00;;;;;;;6.32;2.03;;;12.70;98.90;;;;;;5026115;28;20036;-63
2023/03/14 07:40:34;;;;;;;2.72;0.82;;;12.80;98.50;;;;;;5028504;28;20119;-63
2023/03/14 07:43:01;;;;;;;5.40;0.90;;;12.70;98.70;;;;;;5022686;28;20116;-63
2023/03/14 07:45:37;;;;;;;2.67;0.60;;;12.70;99.00;;;;;;5030775;28;20677;-63
2023/03/14 07:48:03;;;;;;;2.75;0.75;;;12.60;99.00;;;;;;5029897;28;20041;-64
2023/03/14 07:50:29;;;;;;;2.47;0.68;;;12.60;99.10;;;;;;5024505;28;20607;-63
2023/03/14 07:52:55;;;;;;;2.17;0.90;;;12.60;99.20;;;;;;5024766;28;20037;-64
2023/03/14 07:55:21;;;;;;;2.38;0.77;;;12.70;98.80;;;;;;5024085;28;20663;-63
2023/03/14 07:57:46;;;;;;;1.80;0.57;;;12.90;98.00;;;;;;5025754;28;20044;-64
2023/03/14 08:00:13;;;;;;;3.58;0.95;;;12.90;98.30;;;;;;5029049;28;20025;-64
2023/03/14 08:02:40;;;;;;;5.55;1.92;;;12.90;98.10;;;;;;5031050;28;20065;-64
2023/03/14 08:05:07;;;;;;;2.85;1.10;;;12.90;98.60;;;;;;5030209;28;20037;-64
2023/03/14 08:07:33;;;;;;;1.42;0.60;;;12.90;98.10;;;;;;5030380;28;20603;-64
2023/03/14 08:09:58;;;;;;;6.07;1.15;;;12.90;98.40;;;;;;5032408;28;20128;-64
2023/03/14 08:12:24;;;;;;;4.28;0.70;;;13.00;98.20;;;;;;5029046;28;20025;-64
2023/03/14 08:14:50;;;;;;;4.18;0.85;;;13.00;98.00;;;;;;5023974;28;20477;-63
2023/03/14 08:17:16;;;;;;;3.20;1.00;;;12.90;97.80;;;;;;5025845;28;20048;-64
2023/03/14 08:19:42;;;;;;;1.40;0.70;;;12.80;98.10;;;;;;5026683;28;20056;-63
2023/03/14 08:22:07;;;;;;;2.20;0.85;;;12.80;98.00;;;;;;5029778;28;20033;-62
2023/03/14 08:24:34;;;;;;;1.85;0.63;;;12.80;98.20;;;;;;5029931;28;20092;-64
2023/03/14 08:26:59;;;;;;;2.65;0.80;;;12.80;97.80;;;;;;5032001;28;20467;-63
2023/03/14 08:29:25;;;;;;;3.88;0.90;;;12.70;98.30;;;;;;5025924;28;20037;-63
2023/03/14 08:31:51;;;;;;;3.05;1.00;;;12.70;98.30;;;;;;5032726;28;20074;-63
2023/03/14 08:34:17;;;;;;;2.97;0.68;;;12.80;98.10;;;;;;5027582;28;20047;-63
2023/03/14 08:36:43;;;;;;;2.67;0.73;;;12.80;97.60;;;;;;5030678;28;20038;-64
2023/03/14 08:39:09;;;;;;;3.92;1.00;;;12.80;97.30;;;;;;5029894;28;20025;-63
2023/03/14 08:41:40;;;;;;;3.65;0.82;;;12.80;98.00;;;;;;5027322;28;20056;-64
2023/03/14 08:44:07;;;;;;;4.88;1.63;;;12.80;97.80;;;;;;5028956;28;20037;-64
2023/03/14 08:46:34;;;;;;;4.32;1.45;;;12.80;97.40;;;;;;5023455;28;20850;-62
2023/03/14 08:48:59;;;;;;;4.47;1.00;;;12.90;97.70;;;;;;5025714;28;20706;-63
2023/03/14 08:51:25;;;;;;;3.55;1.25;;;13.10;97.00;;;;;;5030159;28;20041;-63
2023/03/14 08:53:51;;;;;;;1.30;0.65;;;13.20;96.80;;;;;;5030212;28;20044;-63
2023/03/14 08:56:17;;;;;;;3.85;1.25;;;13.40;96.60;;;;;;5026096;28;20493;-63
2023/03/14 08:58:43;;;;;;;5.18;1.10;;;13.50;96.70;;;;;;5030329;28;20113;-63
2023/03/14 09:01:10;;;;;;;2.92;0.52;;;14.00;96.10;;;;;;5023447;28;20030;-63
2023/03/14 09:03:37;;;;;;;2.85;0.85;;;14.30;95.10;;;;;;5024347;28;20041;-63
2023/03/14 09:06:09;;;;;;;3.22;1.08;;;15.10;93.40;;;;;;5030178;28;20032;-62
2023/03/14 09:08:35;;;;;;;3.90;0.90;;;15.50;91.50;;;;;;5031368;28;20078;-63
2023/03/14 09:11:01;;;;;;;3.50;0.95;;;15.90;91.10;;;;;;5028470;28;20813;-62
2023/03/14 09:13:27;;;;;;;1.80;0.52;;;16.40;86.80;;;;;;5024247;28;20033;-62
2023/03/14 09:15:54;;;;;;;3.30;0.70;;;16.80;83.90;;;;;;5022330;28;20072;-63
2023/03/14 09:18:20;;;;;;;2.22;0.77;;;16.80;84.20;;;;;;5020875;28;20038;-62
2023/03/14 09:20:46;;;;;;;4.07;0.80;;;16.60;82.00;;;;;;5029774;28;20093;-63
2023/03/14 09:23:12;;;;;;;4.70;0.70;;;16.50;83.40;;;;;;5027600;28;20141;-63
2023/03/14 09:25:38;;;;;;;4.07;0.93;;;16.20;81.50;;;;;;5027137;28;20803;-63
2023/03/14 09:28:05;;;;;;;2.03;0.70;;;15.90;82.00;;;;;;5025370;28;20488;-64
2023/03/14 09:30:31;;;;;;;12.70;3.25;;;15.50;83.60;;;;;;5029167;28;20123;-63
2023/03/14 09:32:57;;;;;;;2.47;0.82;;;15.10;86.00;;;;;;5024274;28;20072;-66
2023/03/14 09:35:23;;;;;;;5.03;1.00;;;14.70;86.80;;;;;;5030984;28;20046;-65
2023/03/14 09:37:49;;;;;;;10.43;2.40;;;14.40;89.10;;;;;;5029719;28;20033;-64
2023/03/14 09:40:16;;;;;;;3.63;0.80;;;14.40;90.30;;;;;;5027818;28;20477;-63
2023/03/14 09:42:42;;;;;;;5.40;0.90;;;14.40;90.20;;;;;;5025698;28;20100;-64
2023/03/14 09:45:26;;;;;;;2.03;0.60;;;14.40;91.30;;;;;;5028064;28;20549;-66
2023/03/14 09:47:53;;;;;;;4.25;0.80;;;14.50;91.00;;;;;;5029618;28;20043;-63
2023/03/14 09:50:19;;;;;;;2.10;0.60;;;14.50;91.10;;;;;;5024384;28;20181;-61
2023/03/14 09:52:59;;;;;;;2.70;0.90;;;14.50;90.90;;;;;;5022525;28;20041;-63
2023/03/14 09:55:24;;;;;;;3.60;1.05;;;14.60;90.80;;;;;;5031853;28;20405;-63
2023/03/14 09:57:56;;;;;;;2.40;1.00;;;14.50;91.00;;;;;;5027013;28;20080;-68
2023/03/14 10:00:25;;;;;;;3.67;0.88;;;14.50;91.00;;;;;;5024681;28;20821;-64
2023/03/14 10:03:18;;;;;;;3.80;0.80;;;14.60;90.60;;;;;;5026879;28;20444;-64
2023/03/14 10:05:44;;;;;;;3.03;0.77;;;14.40;90.30;;;;;;5018784;28;20052;-64
2023/03/14 10:08:11;;;;;;;2.88;0.73;;;14.30;90.60;;;;;;5024807;28;20033;-64
2023/03/14 10:10:39;;;;;;;1.85;1.20;;;14.20;90.70;;;;;;5031037;28;20818;-64
2023/03/14 10:13:27;;;;;;;2.90;1.05;;;14.10;90.80;;;;;;5021890;28;20041;-61
2023/03/14 10:15:58;;;;;;;3.97;0.82;;;13.90;91.80;;;;;;5028784;28;20037;-66
2023/03/14 10:18:24;;;;;;;2.60;0.82;;;14.00;92.00;;;;;;5028063;28;20060;-63
2023/03/14 10:21:03;;;;;;;2.45;0.80;;;14.10;91.60;;;;;;5022694;28;20057;-64
2023/03/14 10:23:31;;;;;;;1.95;0.57;;;14.00;91.30;;;;;;5026019;28;20148;-63
2023/03/14 10:26:00;;;;;;;1.10;0.65;;;14.00;91.40;;;;;;5023205;28;20021;-63
2023/03/14 10:28:33;;;;;;;3.60;0.68;;;14.00;91.10;;;;;;5028688;28;20041;-63
2023/03/14 10:31:00;;;;;;;4.18;0.90;;;14.10;91.00;;;;;;5020885;28;20036;-64
2023/03/14 10:33:29;;;;;;;3.83;0.68;;;14.20;91.00;;;;;;5031632;28;20115;-63
2023/03/14 10:36:05;;;;;;;0.77;0.40;;;14.20;90.50;;;;;;5028345;28;20040;-62
2023/03/14 10:38:32;;;;;;;;;;;14.30;90.80;;;;;;5030303;28;20037;-62
2023/03/14 10:40:59;;;;;;;3.10;0.50;;;14.20;90.50;;;;;;5027031;28;19912;-63
2023/03/14 10:43:36;;;;;;;1.85;0.43;;;14.10;90.90;;;;;;5022346;28;20044;-63
2023/03/14 10:46:13;;;;;;;1.15;0.50;;;14.00;91.00;;;;;;5027366;28;20048;-63
2023/03/14 10:49:04;;;;;;;;;;;14.00;91.40;;;;;;5028430;28;20085;-62
2023/03/14 10:51:30;;;;;;;1.35;0.50;;;14.00;90.90;;;;;;5022770;28;19968;-62
2023/03/14 10:53:57;;;;;;;2.50;0.70;;;14.10;90.90;;;;;;5021522;28;20099;-62
2023/03/14 10:56:25;;;;;;;0.75;0.52;;;14.10;90.60;;;;;;5020161;28;20040;-62
2023/03/14 10:58:55;;;;;;;1.98;0.80;;;13.90;91.10;;;;;;5020709;28;20038;-61
2023/03/14 11:01:47;;;;;;;2.15;0.80;;;13.80;91.60;;;;;;5028144;28;20120;-63
2023/03/14 11:04:25;;;;;;;2.97;0.50;;;13.80;91.60;;;;;;5022235;28;20132;-63
2023/03/14 11:07:03;;;;;;;2.45;0.80;;;13.80;91.70;;;;;;5024484;28;20044;-63
2023/03/14 11:09:41;;;;;;;1.67;0.50;;;13.90;92.10;;;;;;5028998;28;20108;-62
2023/03/14 11:12:41;;;;;;;1.40;0.40;;;13.90;91.90;;;;;;5019968;28;20045;-61
2023/03/14 11:15:19;;;;;;;3.00;0.50;;;13.90;92.10;;;;;;5023788;28;20043;-64
2023/03/14 11:18:16;;;;;;;1.13;0.50;;;13.80;92.50;;;;;;5028844;28;20037;-64
2023/03/14 11:20:54;;;;;;;3.53;0.50;;;13.80;92.60;;;;;;5025116;28;20552;-64
2023/03/14 11:23:31;;;;;;;2.22;0.82;;;14.00;92.60;;;;;;5025610;28;20087;-64
2023/03/14 11:26:20;;;;;;;3.38;0.40;;;14.00;92.30;;;;;;5021802;28;20036;-64
2023/03/14 11:28:49;;;;;;;1.83;0.77;;;13.90;92.40;;;;;;5011159;28;20045;-64
2023/03/14 11:31:31;;;;;;;0.52;0.47;;;13.90;92.70;;;;;;5027059;28;20029;-64
2023/03/14 11:34:21;;;;;;;1.00;0.30;;;13.80;93.40;;;;;;5021535;28;20036;-64
2023/03/14 11:36:59;;;;;;;1.73;0.43;;;13.90;93.10;;;;;;5027074;28;20067;-64
2023/03/14 11:39:29;;;;;;;1.33;0.65;;;14.00;92.80;;;;;;5022539;28;20047;-64
2023/03/14 11:41:58;;;;;;;2.13;0.50;;;14.20;92.50;;;;;;5027767;28;20083;-66
2023/03/14 11:44:35;;;;;;;2.20;0.40;;;14.20;92.80;;;;;;5025307;28;20958;-63
2023/03/14 11:47:07;;;;;;;1.65;0.52;;;14.30;92.10;;;;;;5024417;28;20159;-64
2023/03/14 11:49:40;;;;;;;0.43;0.28;;;14.20;92.90;;;;;;5023492;28;20782;-64
2023/03/14 11:52:23;;;;;;;0.50;0.38;;;14.20;92.30;;;;;;5020069;28;20041;-64
2023/03/14 11:54:58;;;;;;;1.60;0.47;;;14.20;92.80;;;;;;5026432;28;20599;-64
2023/03/14 11:57:24;;;;;;;1.73;0.40;;;14.30;92.10;;;;;;5024420;28;20454;-64
2023/03/14 12:00:00;;;;;;;1.15;0.40;;;14.40;92.50;;;;;;5027285;28;20061;-64
2023/03/14 12:02:43;;;;;;;0.60;0.30;;;14.40;91.80;;;;;;5030934;28;20041;-64
2023/03/14 12:05:25;;;;;;;0.63;0.20;;;14.40;91.60;;;;;;5031334;28;20041;-65
2023/03/14 12:08:09;;;;;;;1.42;0.30;;;14.50;92.70;;;;;;5027836;28;20659;-64
2023/03/14 12:10:42;;;;;;;2.40;0.52;;;14.40;93.40;;;;;;5023163;28;20063;-64
2023/03/14 12:13:10;;;;;;;0.88;0.57;;;14.30;95.10;;;;;;5033711;28;20116;-64
2023/03/14 12:15:40;;;;;;;3.00;1.95;;;14.20;95.50;;;;;;5026383;28;20567;-64
2023/03/14 12:18:26;;;;;;;0.30;0.30;;;14.10;96.20;;;;;;5027918;28;20045;-64
2023/03/14 12:21:01;;;;;;;0.63;0.40;;;14.10;95.40;;;;;;5025209;28;20032;-64
2023/03/14 12:23:33;;;;;;;1.48;1.00;;;14.20;94.50;;;;;;5031872;28;20044;-64
2023/03/14 12:26:11;;;;;;;2.15;0.30;;;14.20;94.40;;;;;;5029810;28;20040;-65
2023/03/14 12:28:39;;;;;;;1.30;0.52;;;14.20;93.90;;;;;;5027754;28;20894;-64
2023/03/14 12:31:30;;;;;;;0.77;0.32;;;14.20;93.50;;;;;;5029012;28;20861;-64
2023/03/14 12:34:11;;;;;;;2.00;0.25;;;13.90;94.50;;;;;;5027950;28;20033;-63
2023/03/14 12:36:53;;;;;;;0.80;0.40;;;13.70;96.60;;;;;;5025543;28;20158;-65
2023/03/14 12:39:37;;;;;;;10.50;4.80;;;13.50;98.40;;;;;;5022711;28;20035;-64
2023/03/14 12:42:21;;;;;;;16.65;9.75;;;13.40;99.90;;;;;;5022836;28;20037;-64
2023/03/14 12:44:51;;;;;;;45.22;23.52;;;13.40;99.90;;;;;;5018422;28;20120;-63
2023/03/14 12:47:19;;;;;;;35.40;18.38;;;13.50;99.90;;;;;;5030506;28;20679;-64
2023/03/14 12:49:48;;;;;;;46.17;24.20;;;13.50;99.90;;;;;;5029978;28;20065;-64
2023/03/14 12:52:22;;;;;;;21.35;12.25;;;13.50;99.90;;;;;;5032589;28;20378;-64
2023/03/14 12:55:14;;;;;;;12.15;5.32;;;13.60;99.90;;;;;;5027345;28;20033;-64
2023/03/14 12:57:47;;;;;;;3.17;1.85;;;13.80;99.90;;;;;;5010975;28;20106;-63
2023/03/14 13:00:29;;;;;;;9.95;5.63;;;13.90;99.90;;;;;;5023231;28;20032;-64
2023/03/14 13:03:15;;;;;;;9.70;6.75;;;14.20;99.90;;;;;;5026202;28;20037;-64
2023/03/14 13:06:03;;;;;;;52.45;37.08;;;14.60;99.90;;;;;;5025591;28;20146;-64
2023/03/14 13:08:40;;;;;;;12.98;10.25;;;14.90;99.90;;;;;;5037712;28;20044;-63